Badajoz, Spain
Current Conditions -  °F | °C
As of 9:00 PM on Thursday 29 Jan 2015 (Local Time) from LEBZ Reporting Station
Overcast Overcast  
Wind Chill: 57°   Ceiling: 1500
Heat Index: 57°   Visibility: 6mi
Dew Point: 54°   Wind: 14mph
Humidity: 88%   Direction: 270°W
Pressure: 30.03"   Gusts: NA
Location:  38.88°N, 6.97°W
Report Text: LEBZ 292000Z 27012KT 9999 OVC015 14/12 Q1017
Loading
Personal Weather Stations






























Interactive Weather Map New forecast layout! Learn more

10-Day Weather Forecast

Advertisements
Track Severe Weather on mobile